Steirman, Idaho
Current Conditions -  °F | °C
As of 1:07 PM on Wednesday 28 Jan 2015 (Local Time) from KBOI Reporting Station
Haze Haze  
Wind Chill: 34°   Ceiling: 400
Heat Index: 37°   Visibility: 2.5mi
Dew Point: 37°   Wind: 5mph
Humidity: 100%   Direction: 30°NNE
Pressure: 30.37"   Gusts: NA
Location:  43.8008°N, 115.834°W
Report Text: KBOI 282007Z 03004KT 2 1/2SM BR OVC004 03/03 A3037 RMK AO2 SFC VIS 4
Loading
Personal Weather Stations






























Interactive Weather Map New forecast layout! Learn more

10-Day Weather Forecast

Advertisements
Track Severe Weather on mobile